createdAt,value
2018-02-24T00:01:03.536Z,-2.71
2018-02-24T00:03:31.148Z,-2.73
2018-02-24T00:05:58.878Z,-2.72
2018-02-24T00:08:26.494Z,-2.88
2018-02-24T00:10:54.160Z,-2.82
2018-02-24T00:13:21.847Z,-2.75
2018-02-24T00:15:49.529Z,-2.75
2018-02-24T00:18:17.159Z,-2.77
2018-02-24T00:20:44.793Z,-2.83
2018-02-24T00:23:12.455Z,-2.88
2018-02-24T00:25:40.336Z,-2.88
2018-02-24T00:28:08.075Z,-2.91
2018-02-24T00:30:35.677Z,-2.91
2018-02-24T00:33:03.460Z,-2.98
2018-02-24T00:35:31.132Z,-2.97
2018-02-24T00:37:58.804Z,-2.89
2018-02-24T00:40:26.557Z,-3.00
2018-02-24T00:42:54.262Z,-2.96
2018-02-24T00:45:21.949Z,-2.89
2018-02-24T00:47:49.680Z,-2.90
2018-02-24T00:50:17.267Z,-3.01
2018-02-24T00:52:45.036Z,-3.08
2018-02-24T00:55:12.734Z,-2.96
2018-02-24T00:57:40.415Z,-3.00
2018-02-24T01:00:08.302Z,-3.14
2018-02-24T01:02:35.911Z,-3.04
2018-02-24T01:05:03.641Z,-3.02
2018-02-24T01:07:31.429Z,-3.03
2018-02-24T01:09:59.197Z,-2.98
2018-02-24T01:12:26.876Z,-3.06
2018-02-24T01:14:54.458Z,-2.99
2018-02-24T01:17:22.119Z,-2.90
2018-02-24T01:19:49.703Z,-2.89
2018-02-24T01:22:17.367Z,-2.91
2018-02-24T01:24:45.052Z,-2.96
2018-02-24T01:27:12.719Z,-3.10
2018-02-24T01:29:40.399Z,-3.00
2018-02-24T01:32:07.986Z,-2.99
2018-02-24T01:34:35.640Z,-3.00
2018-02-24T01:37:03.379Z,-3.03
2018-02-24T01:39:31.130Z,-3.01
2018-02-24T01:41:58.840Z,-3.20
2018-02-24T01:44:26.427Z,-3.07
2018-02-24T01:46:54.116Z,-3.18
2018-02-24T01:49:21.809Z,-3.11
2018-02-24T01:51:49.591Z,-3.19
2018-02-24T01:54:17.248Z,-3.17
2018-02-24T01:56:44.943Z,-3.19
2018-02-24T01:59:12.720Z,-3.25
2018-02-24T02:01:40.499Z,-3.34
2018-02-24T02:04:08.270Z,-3.39
2018-02-24T02:06:35.909Z,-3.37
2018-02-24T02:09:03.693Z,-3.40
2018-02-24T02:11:31.438Z,-3.45
2018-02-24T02:13:59.079Z,-3.51
2018-02-24T02:16:26.749Z,-3.43
2018-02-24T02:18:54.533Z,-3.45
2018-02-24T02:21:22.164Z,-3.53
2018-02-24T02:23:49.775Z,-3.51
2018-02-24T02:26:17.428Z,-3.63
2018-02-24T02:28:45.082Z,-3.55
2018-02-24T02:31:12.912Z,-3.59
2018-02-24T02:33:40.560Z,-3.57
2018-02-24T02:36:08.243Z,-3.58
2018-02-24T02:38:35.935Z,-3.58
2018-02-24T02:41:03.509Z,-3.61
2018-02-24T02:43:31.159Z,-3.60
2018-02-24T02:45:58.740Z,-3.70
2018-02-24T02:48:26.533Z,-3.77
2018-02-24T02:50:54.141Z,-3.76
2018-02-24T02:53:21.761Z,-3.74
2018-02-24T02:55:49.446Z,-3.77
2018-02-24T02:58:17.131Z,-3.65
2018-02-24T03:00:44.801Z,-3.61
2018-02-24T03:03:12.582Z,-3.63
2018-02-24T03:05:40.265Z,-3.65
2018-02-24T03:08:07.859Z,-3.61
2018-02-24T03:10:35.476Z,-3.57
2018-02-24T03:13:03.049Z,-3.62
2018-02-24T03:15:30.756Z,-3.73
2018-02-24T03:17:58.432Z,-3.66
2018-02-24T03:20:26.104Z,-3.62
2018-02-24T03:22:53.886Z,-3.61
2018-02-24T03:25:21.671Z,-3.66
2018-02-24T03:27:49.330Z,-3.64
2018-02-24T03:30:17.009Z,-3.63
2018-02-24T03:32:44.672Z,-3.68
2018-02-24T03:35:12.291Z,-3.67
2018-02-24T03:37:39.895Z,-3.75
2018-02-24T03:40:07.495Z,-3.68
2018-02-24T03:42:35.108Z,-3.73
2018-02-24T03:45:02.905Z,-3.69
2018-02-24T03:47:30.640Z,-3.72
2018-02-24T03:49:58.267Z,-3.79
2018-02-24T03:52:26.050Z,-3.75
2018-02-24T03:54:53.875Z,-3.81
2018-02-24T03:57:21.654Z,-3.83
2018-02-24T03:59:49.420Z,-3.80
2018-02-24T04:02:17.006Z,-3.83
2018-02-24T04:04:44.638Z,-3.82
2018-02-24T04:07:12.438Z,-3.81
2018-02-24T04:09:40.336Z,-3.80
2018-02-24T04:12:07.924Z,-3.77
2018-02-24T04:14:35.527Z,-3.72
2018-02-24T04:17:03.312Z,-3.79
2018-02-24T04:19:31.126Z,-3.77
2018-02-24T04:21:58.772Z,-3.88
2018-02-24T04:24:26.347Z,-3.81
2018-02-24T04:26:53.936Z,-3.78
2018-02-24T04:29:21.742Z,-3.82
2018-02-24T04:31:49.524Z,-3.81
2018-02-24T04:34:17.292Z,-3.80
2018-02-24T04:36:45.071Z,-3.80
2018-02-24T04:39:12.739Z,-3.86
2018-02-24T04:41:40.521Z,-3.84
2018-02-24T04:44:08.192Z,-3.90
2018-02-24T04:46:35.774Z,-3.94
2018-02-24T04:49:03.416Z,-3.95
2018-02-24T04:51:31.122Z,-3.91
2018-02-24T04:53:58.901Z,-4.00
2018-02-24T04:56:26.535Z,-3.93
2018-02-24T04:58:54.122Z,-3.98
2018-02-24T05:01:21.925Z,-4.06
2018-02-24T05:03:49.668Z,-4.06
2018-02-24T05:06:17.377Z,-4.06
2018-02-24T05:08:45.230Z,-4.06
2018-02-24T05:11:12.817Z,-4.09
2018-02-24T05:13:40.510Z,-4.09
2018-02-24T05:16:08.388Z,-4.10
2018-02-24T05:18:36.048Z,-4.12
2018-02-24T05:21:03.735Z,-4.12
2018-02-24T05:23:31.408Z,-4.10
2018-02-24T05:25:59.004Z,-4.12
2018-02-24T05:28:26.612Z,-4.17
2018-02-24T05:30:54.444Z,-4.24
2018-02-24T05:33:22.321Z,-4.20
2018-02-24T05:35:49.993Z,-4.25
2018-02-24T05:38:17.656Z,-4.23
2018-02-24T05:40:45.451Z,-4.24
2018-02-24T05:43:13.128Z,-4.16
2018-02-24T05:45:40.802Z,-4.22
2018-02-24T05:48:08.569Z,-4.26
2018-02-24T05:50:36.251Z,-4.24
2018-02-24T05:53:03.920Z,-4.27
2018-02-24T05:55:31.557Z,-4.26
2018-02-24T05:57:59.261Z,-4.31
2018-02-24T06:00:27.159Z,-4.28
2018-02-24T06:02:54.743Z,-4.27
2018-02-24T06:05:22.400Z,-4.39
2018-02-24T06:07:50.017Z,-4.38
2018-02-24T06:10:17.652Z,-4.36
2018-02-24T06:12:45.431Z,-4.42
2018-02-24T06:15:13.214Z,-4.47
2018-02-24T06:17:40.991Z,-4.45
2018-02-24T06:20:08.631Z,-4.40
2018-02-24T06:22:36.244Z,-4.41
2018-02-24T06:25:03.857Z,-4.42
2018-02-24T06:27:31.649Z,-4.42
2018-02-24T06:29:59.470Z,-4.45
2018-02-24T06:32:27.138Z,-4.43
2018-02-24T06:34:55.026Z,-4.46
2018-02-24T06:37:22.694Z,-4.50
2018-02-24T06:39:50.376Z,-4.44
2018-02-24T06:42:18.049Z,-4.38
2018-02-24T06:44:45.789Z,-4.41
2018-02-24T06:47:13.609Z,-4.51
2018-02-24T06:49:41.233Z,-4.35
2018-02-24T06:52:08.935Z,-4.37
2018-02-24T06:54:36.628Z,-4.37
2018-02-24T06:57:04.350Z,-4.36
2018-02-24T06:59:31.975Z,-4.39
2018-02-24T07:01:59.636Z,-4.30
2018-02-24T07:04:27.437Z,-4.31
2018-02-24T07:06:55.106Z,-4.32
2018-02-24T07:09:22.890Z,-4.22
2018-02-24T07:11:50.530Z,-4.08
2018-02-24T07:14:18.120Z,-4.17
2018-02-24T07:16:45.701Z,-4.02
2018-02-24T07:19:13.377Z,-4.00
2018-02-24T07:21:41.036Z,-3.97
2018-02-24T07:24:08.612Z,-3.96
2018-02-24T07:26:36.196Z,-4.02
2018-02-24T07:29:03.820Z,-3.89
2018-02-24T07:31:31.392Z,-3.88
2018-02-24T07:33:59.119Z,-3.87
2018-02-24T07:36:26.692Z,-3.89
2018-02-24T07:38:54.789Z,-3.85
2018-02-24T07:41:22.507Z,-3.79
2018-02-24T07:43:50.093Z,-3.70
2018-02-24T07:46:17.912Z,-3.66
2018-02-24T07:48:45.585Z,-3.61
2018-02-24T07:51:13.265Z,-3.62
2018-02-24T07:53:41.046Z,-3.56
2018-02-24T07:56:08.718Z,-3.45
2018-02-24T07:58:36.393Z,-3.44
2018-02-24T08:01:04.027Z,-3.43
2018-02-24T08:03:31.730Z,-3.34
2018-02-24T08:05:59.407Z,-3.21
2018-02-24T08:08:26.979Z,-3.33
2018-02-24T08:10:54.775Z,-3.25
2018-02-24T08:13:22.593Z,-3.13
2018-02-24T08:15:50.187Z,-3.07
2018-02-24T08:18:17.759Z,-3.05
2018-02-24T08:20:45.396Z,-2.98
2018-02-24T08:23:13.250Z,-2.97
2018-02-24T08:25:41.026Z,-2.91
2018-02-24T08:28:08.637Z,-2.90
2018-02-24T08:30:36.266Z,-2.83
2018-02-24T08:33:03.871Z,-2.71
2018-02-24T08:35:32.752Z,-2.58
2018-02-24T08:38:00.518Z,-2.57
2018-02-24T08:40:28.083Z,-2.50
2018-02-24T08:42:55.736Z,-2.36
2018-02-24T08:45:23.433Z,-2.33
2018-02-24T08:47:51.232Z,-2.09
2018-02-24T08:50:19.009Z,-1.99
2018-02-24T08:52:46.575Z,-2.05
2018-02-24T08:55:14.227Z,-1.90
2018-02-24T08:57:41.799Z,-1.85
2018-02-24T09:00:09.727Z,-1.77
2018-02-24T09:02:37.386Z,-1.74
2018-02-24T09:05:05.165Z,-1.70
2018-02-24T09:07:32.849Z,-1.59
2018-02-24T09:10:00.571Z,-1.46
2018-02-24T09:12:28.173Z,-1.20
2018-02-24T09:14:55.857Z,-1.24
2018-02-24T09:17:23.428Z,-1.06
2018-02-24T09:19:51.002Z,-0.84
2018-02-24T09:22:18.793Z,-1.02
2018-02-24T09:24:46.570Z,-0.91
2018-02-24T09:27:14.308Z,-0.70
2018-02-24T09:29:41.930Z,-0.79
2018-02-24T09:32:09.517Z,-0.60
2018-02-24T09:34:37.155Z,-0.57
2018-02-24T09:37:04.855Z,-0.42
2018-02-24T09:39:32.567Z,-0.59
2018-02-24T09:42:00.283Z,-0.40
2018-02-24T09:44:27.971Z,-0.39
2018-02-24T09:46:55.637Z,-0.26
2018-02-24T09:49:23.267Z,-0.33
2018-02-24T09:51:50.846Z,-0.19
2018-02-24T09:54:18.455Z,-0.02
2018-02-24T09:56:46.116Z,-0.13
2018-02-24T09:59:13.806Z,0.14
2018-02-24T10:01:41.597Z,0.03
2018-02-24T10:04:09.265Z,-0.04
2018-02-24T10:06:36.935Z,0.26
2018-02-24T10:09:04.704Z,0.28
2018-02-24T10:11:32.392Z,0.50
2018-02-24T10:14:00.071Z,0.52
2018-02-24T10:16:27.740Z,0.05
2018-02-24T10:18:55.532Z,0.11
2018-02-24T10:21:23.137Z,0.25
2018-02-24T10:23:50.776Z,0.33
2018-02-24T10:26:18.356Z,0.41
2018-02-24T10:28:46.015Z,0.29
2018-02-24T10:31:13.694Z,0.37
2018-02-24T10:33:41.578Z,0.16
2018-02-24T10:36:09.202Z,0.41
2018-02-24T10:38:36.930Z,0.46
2018-02-24T10:41:04.707Z,0.30
2018-02-24T10:43:32.359Z,0.19
2018-02-24T10:46:00.043Z,0.27
2018-02-24T10:48:27.631Z,0.48
2018-02-24T10:50:55.201Z,0.48
2018-02-24T10:53:22.852Z,0.61
2018-02-24T10:55:50.555Z,0.74
2018-02-24T10:58:18.122Z,0.81
2018-02-24T11:00:45.888Z,0.85
2018-02-24T11:03:13.573Z,1.07
2018-02-24T11:05:41.258Z,0.98
2018-02-24T11:08:09.138Z,1.29
2018-02-24T11:10:36.718Z,1.44
2018-02-24T11:13:04.563Z,1.30
2018-02-24T11:15:32.363Z,1.22
2018-02-24T11:18:00.148Z,1.33
2018-02-24T11:20:27.807Z,1.56
2018-02-24T11:22:55.373Z,1.60
2018-02-24T11:25:23.065Z,1.76
2018-02-24T11:27:50.701Z,1.35
2018-02-24T11:30:18.405Z,1.47
2018-02-24T11:32:45.973Z,1.82
2018-02-24T11:35:13.807Z,1.51
2018-02-24T11:37:41.441Z,1.66
2018-02-24T11:40:09.121Z,1.43
2018-02-24T11:42:37.001Z,1.61
2018-02-24T11:45:04.667Z,1.76
2018-02-24T11:47:32.339Z,1.90
2018-02-24T11:49:59.979Z,1.60
2018-02-24T11:52:27.700Z,1.46
2018-02-24T11:54:55.479Z,1.71
2018-02-24T11:57:23.140Z,1.38
2018-02-24T11:59:50.822Z,1.73
2018-02-24T12:02:18.504Z,1.91
2018-02-24T12:04:46.172Z,1.63
2018-02-24T12:07:13.847Z,1.74
2018-02-24T12:09:41.476Z,1.66
2018-02-24T12:12:09.187Z,1.99
2018-02-24T12:14:36.803Z,1.88
2018-02-24T12:17:04.409Z,1.84
2018-02-24T12:19:32.016Z,1.66
2018-02-24T12:21:59.722Z,1.93
2018-02-24T12:24:27.372Z,1.98
2018-02-24T12:26:55.047Z,1.90
2018-02-24T12:29:22.834Z,1.89
2018-02-24T12:31:50.608Z,1.82
2018-02-24T12:34:18.390Z,1.69
2018-02-24T12:36:46.062Z,1.41
2018-02-24T12:39:13.948Z,1.34
2018-02-24T12:41:41.619Z,1.13
2018-02-24T12:44:09.294Z,1.16
2018-02-24T12:46:36.906Z,1.14
2018-02-24T12:49:04.541Z,1.13
2018-02-24T12:51:32.208Z,0.99
2018-02-24T12:53:59.996Z,1.31
2018-02-24T12:56:27.667Z,1.62
2018-02-24T12:58:55.247Z,1.62
2018-02-24T13:01:22.979Z,1.71
2018-02-24T13:03:50.798Z,1.83
2018-02-24T13:06:18.403Z,2.03
2018-02-24T13:08:46.123Z,2.16
2018-02-24T13:11:13.746Z,2.05
2018-02-24T13:13:41.458Z,2.26
2018-02-24T13:16:09.087Z,2.34
2018-02-24T13:18:36.844Z,2.37
2018-02-24T13:21:04.673Z,2.76
2018-02-24T13:23:32.506Z,2.83
2018-02-24T13:26:00.178Z,2.64
2018-02-24T13:28:27.755Z,2.69
2018-02-24T13:30:55.419Z,2.85
2018-02-24T13:33:23.212Z,3.12
2018-02-24T13:35:50.991Z,2.59
2018-02-24T13:38:18.595Z,2.40
2018-02-24T13:40:46.388Z,2.11
2018-02-24T13:43:14.081Z,1.91
2018-02-24T13:45:41.654Z,1.77
2018-02-24T13:48:09.468Z,1.60
2018-02-24T13:50:37.050Z,1.71
2018-02-24T13:53:04.698Z,1.88
2018-02-24T13:55:32.387Z,2.27
2018-02-24T13:58:00.052Z,2.70
2018-02-24T14:00:27.845Z,2.47
2018-02-24T14:02:55.442Z,2.54
2018-02-24T14:05:23.085Z,2.51
2018-02-24T14:07:50.714Z,2.58
2018-02-24T14:10:18.275Z,2.77
2018-02-24T14:12:45.906Z,2.56
2018-02-24T14:15:13.694Z,2.24
2018-02-24T14:17:41.355Z,2.11
2018-02-24T14:20:08.935Z,2.14
2018-02-24T14:22:36.616Z,2.10
2018-02-24T14:25:04.779Z,2.02
2018-02-24T14:27:32.474Z,1.98
2018-02-24T14:30:00.265Z,1.85
2018-02-24T14:32:27.871Z,1.85
2018-02-24T14:34:55.504Z,1.73
2018-02-24T14:37:23.068Z,1.82
2018-02-24T14:39:50.764Z,1.96
2018-02-24T14:42:19.555Z,2.07
2018-02-24T14:44:47.335Z,2.18
2018-02-24T14:47:15.061Z,2.27
2018-02-24T14:49:42.768Z,2.09
2018-02-24T14:52:10.565Z,2.43
2018-02-24T14:54:38.339Z,2.31
2018-02-24T14:57:06.025Z,2.39
2018-02-24T14:59:33.796Z,2.37
2018-02-24T15:02:01.445Z,2.35
2018-02-24T15:04:29.250Z,2.15
2018-02-24T15:06:57.093Z,1.94
2018-02-24T15:09:24.676Z,1.78
2018-02-24T15:11:52.373Z,1.81
2018-02-24T15:14:20.005Z,1.77
2018-02-24T15:16:47.564Z,1.53
2018-02-24T15:19:15.137Z,1.52
2018-02-24T15:21:42.859Z,1.53
2018-02-24T15:24:10.455Z,1.59
2018-02-24T15:26:38.226Z,1.63
2018-02-24T15:29:06.107Z,1.63
2018-02-24T15:31:33.711Z,1.59
2018-02-24T15:34:01.350Z,1.62
2018-02-24T15:36:29.020Z,1.61
2018-02-24T15:38:56.614Z,1.64
2018-02-24T15:41:24.257Z,1.63
2018-02-24T15:43:52.056Z,1.59
2018-02-24T15:46:19.656Z,1.53
2018-02-24T15:48:47.293Z,1.50
2018-02-24T15:51:15.888Z,1.47
2018-02-24T15:53:43.678Z,1.49
2018-02-24T15:56:11.343Z,1.63
2018-02-24T15:58:38.979Z,1.42
2018-02-24T16:01:06.615Z,1.35
2018-02-24T16:03:34.266Z,1.28
2018-02-24T16:06:02.051Z,1.20
2018-02-24T16:08:29.831Z,1.18
2018-02-24T16:10:57.501Z,1.13
2018-02-24T16:13:25.286Z,1.13
2018-02-24T16:15:53.062Z,1.01
2018-02-24T16:18:20.784Z,1.05
2018-02-24T16:20:48.479Z,0.95
2018-02-24T16:23:16.084Z,0.88
2018-02-24T16:25:43.779Z,0.79
2018-02-24T16:28:11.441Z,0.81
2018-02-24T16:30:39.013Z,0.75
2018-02-24T16:33:06.772Z,0.76
2018-02-24T16:35:34.569Z,0.69
2018-02-24T16:38:02.349Z,0.71
2018-02-24T16:40:30.123Z,0.72
2018-02-24T16:42:57.704Z,0.63
2018-02-24T16:45:25.360Z,0.60
2018-02-24T16:47:53.037Z,0.60
2018-02-24T16:50:20.827Z,0.60
2018-02-24T16:52:48.669Z,0.57
2018-02-24T16:55:16.236Z,0.54
2018-02-24T16:57:43.839Z,0.45
2018-02-24T17:00:11.675Z,0.43
2018-02-24T17:02:39.355Z,0.47
2018-02-24T17:05:06.979Z,0.40
2018-02-24T17:07:34.608Z,0.39
2018-02-24T17:10:02.328Z,0.39
2018-02-24T17:12:29.901Z,0.36
2018-02-24T17:14:57.687Z,0.31
2018-02-24T17:17:25.266Z,0.25
2018-02-24T17:19:52.875Z,0.25
2018-02-24T17:22:20.604Z,0.19
2018-02-24T17:24:48.185Z,0.16
2018-02-24T17:27:15.959Z,0.12
2018-02-24T17:29:43.556Z,0.04
2018-02-24T17:32:11.205Z,0.02
2018-02-24T17:34:39.924Z,0.02
2018-02-24T17:37:07.786Z,-0.03
2018-02-24T17:39:35.392Z,-0.11
2018-02-24T17:42:03.132Z,-0.08
2018-02-24T17:44:30.798Z,-0.08
2018-02-24T17:46:58.594Z,-0.22
2018-02-24T17:49:26.245Z,-0.17
2018-02-24T17:51:54.038Z,-0.10
2018-02-24T17:54:21.657Z,-0.17
2018-02-24T17:56:49.392Z,-0.19
2018-02-24T17:59:17.227Z,-0.24
2018-02-24T18:01:44.940Z,-0.29
2018-02-24T18:04:12.569Z,-0.34
2018-02-24T18:06:40.299Z,-0.38
2018-02-24T18:09:08.183Z,-0.41
2018-02-24T18:11:35.850Z,-0.44
2018-02-24T18:14:03.525Z,-0.46
2018-02-24T18:16:31.344Z,-0.46
2018-02-24T18:18:58.972Z,-0.57
2018-02-24T18:21:26.757Z,-0.51
2018-02-24T18:23:54.539Z,-0.45
2018-02-24T18:26:22.211Z,-0.50
2018-02-24T18:28:49.824Z,-0.45
2018-02-24T18:31:17.740Z,-0.49
2018-02-24T18:33:45.549Z,-0.51
2018-02-24T18:36:13.240Z,-0.53
2018-02-24T18:38:40.811Z,-0.58
2018-02-24T18:41:08.389Z,-0.77
2018-02-24T18:43:36.249Z,-0.65
2018-02-24T18:46:04.061Z,-0.65
2018-02-24T18:48:31.643Z,-0.75
2018-02-24T18:50:59.375Z,-0.86
2018-02-24T18:53:27.152Z,-0.86
2018-02-24T18:55:54.830Z,-0.86
2018-02-24T18:58:22.479Z,-0.77
2018-02-24T19:00:50.172Z,-0.80
2018-02-24T19:03:17.743Z,-0.83
2018-02-24T19:05:45.339Z,-0.80
2018-02-24T19:08:13.003Z,-0.83
2018-02-24T19:10:40.888Z,-0.93
2018-02-24T19:13:08.620Z,-0.88
2018-02-24T19:15:36.219Z,-0.90
2018-02-24T19:18:03.845Z,-0.92
2018-02-24T19:20:31.479Z,-0.96
2018-02-24T19:22:59.407Z,-0.99
2018-02-24T19:25:27.020Z,-1.02
2018-02-24T19:27:54.819Z,-1.05
2018-02-24T19:30:22.485Z,-1.05
2018-02-24T19:32:50.048Z,-1.07
2018-02-24T19:35:17.844Z,-1.10
2018-02-24T19:37:45.516Z,-1.09
2018-02-24T19:40:13.102Z,-1.22
2018-02-24T19:42:40.672Z,-1.13
2018-02-24T19:45:08.332Z,-1.10
2018-02-24T19:47:35.958Z,-1.14
2018-02-24T19:50:03.574Z,-1.19
2018-02-24T19:52:31.238Z,-1.22
2018-02-24T19:54:58.833Z,-1.32
2018-02-24T19:57:26.526Z,-1.16
2018-02-24T19:59:54.181Z,-1.23
2018-02-24T20:02:21.858Z,-1.21
2018-02-24T20:04:49.632Z,-1.21
2018-02-24T20:07:17.204Z,-1.28
2018-02-24T20:09:44.772Z,-1.24
2018-02-24T20:12:12.438Z,-1.29
2018-02-24T20:14:40.032Z,-1.34
2018-02-24T20:17:07.808Z,-1.33
2018-02-24T20:19:35.481Z,-1.41
2018-02-24T20:22:03.081Z,-1.37
2018-02-24T20:24:30.723Z,-1.39
2018-02-24T20:26:58.617Z,-1.50
2018-02-24T20:29:26.391Z,-1.39
2018-02-24T20:31:53.963Z,-1.42
2018-02-24T20:34:22.566Z,-1.40
2018-02-24T20:36:50.342Z,-1.36
2018-02-24T20:39:17.925Z,-1.54
2018-02-24T20:41:45.543Z,-1.48
2018-02-24T20:44:13.180Z,-1.56
2018-02-24T20:46:40.942Z,-1.52
2018-02-24T20:49:08.539Z,-1.54
2018-02-24T20:51:36.289Z,-1.61
2018-02-24T20:54:03.920Z,-1.60
2018-02-24T20:56:31.634Z,-1.55
2018-02-24T20:58:59.209Z,-1.67
2018-02-24T21:01:26.989Z,-1.70
2018-02-24T21:03:54.752Z,-1.67
2018-02-24T21:06:22.545Z,-1.67
2018-02-24T21:08:50.221Z,-1.81
2018-02-24T21:11:17.999Z,-1.66
2018-02-24T21:13:45.623Z,-1.81
2018-02-24T21:16:13.263Z,-1.77
2018-02-24T21:18:41.026Z,-1.81
2018-02-24T21:21:08.807Z,-1.88
2018-02-24T21:23:36.423Z,-1.84
2018-02-24T21:26:04.110Z,-1.86
2018-02-24T21:28:31.730Z,-1.90
2018-02-24T21:30:59.397Z,-1.89
2018-02-24T21:33:27.056Z,-1.91
2018-02-24T21:35:55.252Z,-1.94
2018-02-24T21:38:23.163Z,-1.98
2018-02-24T21:40:50.822Z,-2.00
2018-02-24T21:43:18.507Z,-2.05
2018-02-24T21:45:46.154Z,-2.03
2018-02-24T21:48:13.775Z,-2.02
2018-02-24T21:50:41.360Z,-2.08
2018-02-24T21:53:09.095Z,-2.10
2018-02-24T21:55:36.773Z,-2.25
2018-02-24T21:58:04.442Z,-2.09
2018-02-24T22:00:32.225Z,-2.16
2018-02-24T22:03:00.002Z,-2.16
2018-02-24T22:05:27.675Z,-2.19
2018-02-24T22:07:55.336Z,-2.17
2018-02-24T22:10:23.130Z,-2.23
2018-02-24T22:12:50.881Z,-2.20
2018-02-24T22:15:18.468Z,-2.28
2018-02-24T22:17:46.137Z,-2.24
2018-02-24T22:20:13.833Z,-2.26
2018-02-24T22:22:41.449Z,-2.23
2018-02-24T22:25:09.086Z,-2.29
2018-02-24T22:27:36.868Z,-2.28
2018-02-24T22:30:04.540Z,-2.36
2018-02-24T22:32:32.284Z,-2.42
2018-02-24T22:34:59.995Z,-2.40
2018-02-24T22:37:27.595Z,-2.44
2018-02-24T22:39:55.455Z,-2.44
2018-02-24T22:42:23.089Z,-2.41
2018-02-24T22:44:50.791Z,-2.06
2018-02-24T22:47:18.477Z,-2.21
2018-02-24T22:49:46.358Z,-2.42
2018-02-24T22:52:14.019Z,-2.52
2018-02-24T22:54:41.600Z,-2.61
2018-02-24T22:57:09.278Z,-2.58
2018-02-24T22:59:36.885Z,-2.63
2018-02-24T23:02:04.630Z,-2.67
2018-02-24T23:04:32.298Z,-2.72
2018-02-24T23:06:59.869Z,-2.68
2018-02-24T23:09:27.473Z,-2.62
2018-02-24T23:11:55.081Z,-2.73
2018-02-24T23:14:22.809Z,-2.76
2018-02-24T23:16:50.443Z,-2.78
2018-02-24T23:19:18.257Z,-2.81
2018-02-24T23:21:45.828Z,-2.89
2018-02-24T23:24:13.423Z,-2.90
2018-02-24T23:26:41.145Z,-2.93
2018-02-24T23:29:08.841Z,-2.90
2018-02-24T23:31:36.635Z,-2.92
2018-02-24T23:34:04.368Z,-2.97
2018-02-24T23:36:32.075Z,-2.94
2018-02-24T23:38:59.640Z,-2.93
2018-02-24T23:41:27.363Z,-2.97
2018-02-24T23:43:55.008Z,-2.95
2018-02-24T23:46:22.576Z,-3.03
2018-02-24T23:48:50.413Z,-3.01
2018-02-24T23:51:18.022Z,-3.02
2018-02-24T23:53:45.817Z,-3.04
2018-02-24T23:56:13.589Z,-3.03
2018-02-24T23:58:41.216Z,-3.06
